Time;durP1;ratioP1;P1;durP2;ratioP2;P2;SDS_P1;SDS_P2;PMS_P1;PMS_P2;Temp;Humidity;BMP_temperature;BMP_pressure;BME280_temperature;BME280_humidity;BME280_pressure;Samples;Min_cycle;Max_cycle;Signal;HPM_P1;HPM_P2
2022/07/30 00:00:35;;;;;;;57.30;54.50;;;14.30;88.60;;;;;;5000557;28;20485;-83
2022/07/30 00:03:02;;;;;;;57.27;54.27;;;14.30;90.00;;;;;;4978351;28;20561;-83
2022/07/30 00:05:29;;;;;;;78.23;74.93;;;14.30;90.20;;;;;;4978235;28;20989;-83
2022/07/30 00:07:55;;;;;;;91.97;88.10;;;14.20;90.70;;;;;;4992517;28;20459;-83
2022/07/30 00:10:22;;;;;;;75.77;72.67;;;14.20;91.30;;;;;;4997178;28;20973;-83
2022/07/30 00:12:51;;;;;;;88.80;85.30;;;14.10;91.30;;;;;;4980166;28;20467;-83
2022/07/30 00:15:17;;;;;;;96.23;92.40;;;14.10;92.00;;;;;;4975987;28;20459;-83
2022/07/30 00:17:44;;;;;;;71.60;68.60;;;14.10;92.00;;;;;;4978201;28;20455;-83
2022/07/30 00:20:11;;;;;;;69.20;66.03;;;14.10;91.40;;;;;;4977439;28;20857;-83
2022/07/30 00:22:38;;;;;;;81.73;78.33;;;14.00;91.70;;;;;;4990248;28;20474;-83
2022/07/30 00:25:05;;;;;;;90.37;86.87;;;14.00;92.10;;;;;;4996414;28;20458;-83
2022/07/30 00:27:34;;;;;;;65.07;62.27;;;13.90;92.60;;;;;;4988454;28;20459;-83
2022/07/30 00:30:02;;;;;;;59.00;56.20;;;13.90;92.00;;;;;;4979631;28;20451;-83
2022/07/30 00:32:28;;;;;;;62.17;58.80;;;13.90;91.70;;;;;;4996438;28;20470;-83
2022/07/30 00:34:55;;;;;;;122.60;117.60;;;13.90;91.90;;;;;;5002174;28;20955;-84
2022/07/30 00:37:22;;;;;;;120.47;115.73;;;13.70;92.50;;;;;;4982864;28;20447;-83
2022/07/30 00:39:49;;;;;;;105.43;101.07;;;13.70;93.90;;;;;;4978265;28;20486;-83
2022/07/30 00:42:16;;;;;;;83.07;78.23;;;13.70;93.60;;;;;;4991104;28;20474;-83
2022/07/30 00:44:43;;;;;;;92.80;88.90;;;13.70;93.90;;;;;;4998474;28;20516;-84
2022/07/30 00:47:11;;;;;;;127.20;122.10;;;13.70;93.70;;;;;;4986195;28;20451;-82
2022/07/30 00:49:38;;;;;;;132.47;127.37;;;13.80;94.30;;;;;;4980731;28;20451;-83
2022/07/30 00:52:05;;;;;;;134.07;128.57;;;13.90;94.70;;;;;;4987139;28;20450;-83
2022/07/30 00:54:31;;;;;;;108.63;104.03;;;13.80;94.70;;;;;;4998416;28;20831;-84
2022/07/30 00:56:58;;;;;;;97.90;93.50;;;13.80;94.10;;;;;;4988521;28;20963;-83
2022/07/30 00:59:26;;;;;;;138.10;132.83;;;13.70;93.70;;;;;;4977327;28;20508;-84
2022/07/30 01:01:53;;;;;;;154.40;148.57;;;13.60;94.40;;;;;;4990767;28;20508;-84
2022/07/30 01:04:21;;;;;;;248.13;238.23;;;13.60;94.80;;;;;;4995166;28;20465;-83
2022/07/30 01:06:48;;;;;;;240.47;230.93;;;13.50;97.00;;;;;;4981124;28;20454;-83
2022/07/30 01:09:15;;;;;;;242.30;232.73;;;13.60;97.30;;;;;;4977821;28;20463;-82
2022/07/30 01:11:42;;;;;;;234.97;225.60;;;13.60;97.40;;;;;;4990483;28;20450;-82
2022/07/30 01:14:10;;;;;;;224.57;215.73;;;13.60;97.50;;;;;;4996508;28;20473;-82
2022/07/30 01:16:38;;;;;;;282.83;270.57;;;13.50;97.70;;;;;;4984840;28;20451;-82
2022/07/30 01:22:06;;;;;;;384.90;367.57;;;13.70;99.90;;;;;;4990213;28;20904;-82
2022/07/30 01:24:38;;;;;;;333.10;318.63;;;13.80;99.90;;;;;;4996164;28;20460;-82
2022/07/30 01:27:07;;;;;;;325.57;310.77;;;13.80;99.90;;;;;;4982097;28;20455;-82
2022/07/30 01:29:34;;;;;;;318.73;304.33;;;13.90;99.90;;;;;;4976296;28;20455;-82
2022/07/30 01:32:02;;;;;;;335.97;321.13;;;14.00;99.90;;;;;;4978045;28;20477;-82
2022/07/30 01:34:31;;;;;;;327.03;313.07;;;14.00;99.90;;;;;;4976561;28;20462;-81
2022/07/30 01:36:59;;;;;;;258.27;246.90;;;14.30;99.90;;;;;;5000201;28;20834;-82
2022/07/30 01:39:26;;;;;;;223.43;213.13;;;14.40;99.90;;;;;;4989417;28;20510;-82
2022/07/30 01:41:55;;;;;;;165.23;158.03;;;14.60;99.50;;;;;;4981767;28;20455;-82
2022/07/30 01:44:25;;;;;;;140.30;133.83;;;14.80;98.30;;;;;;4989614;28;20453;-82
2022/07/30 01:46:54;;;;;;;117.17;111.90;;;14.80;96.80;;;;;;4991626;28;20453;-83
2022/07/30 01:49:22;;;;;;;88.10;84.07;;;14.80;96.30;;;;;;4978663;28;20455;-81
2022/07/30 01:51:50;;;;;;;75.90;71.63;;;14.80;95.10;;;;;;4983239;28;20461;-82
2022/07/30 01:54:19;;;;;;;64.90;60.73;;;14.90;94.20;;;;;;4997084;28;20454;-82
2022/07/30 01:56:47;;;;;;;60.00;56.70;;;14.90;93.30;;;;;;4993413;28;20451;-83
2022/07/30 01:59:17;;;;;;;53.63;50.43;;;14.90;93.00;;;;;;4978867;28;20458;-82
2022/07/30 02:01:46;;;;;;;41.87;39.17;;;15.00;93.00;;;;;;4992314;28;20450;-83
2022/07/30 02:04:13;;;;;;;34.60;32.40;;;15.10;91.80;;;;;;4997154;28;20456;-82
2022/07/30 02:06:45;;;;;;;28.50;26.20;;;15.30;91.00;;;;;;4984305;28;20470;-83
2022/07/30 02:09:15;;;;;;;23.33;21.33;;;15.30;89.80;;;;;;4983484;28;20465;-82
2022/07/30 02:14:38;;;;;;;24.67;22.40;;;15.30;89.40;;;;;;4977051;28;20490;-83
2022/07/30 02:17:08;;;;;;;24.80;22.70;;;15.30;89.50;;;;;;4977265;28;20837;-82
2022/07/30 02:19:40;;;;;;;27.33;24.27;;;15.30;89.50;;;;;;4977062;28;20734;-83
2022/07/30 02:22:13;;;;;;;29.40;26.93;;;15.20;89.50;;;;;;4978487;28;20490;-82
2022/07/30 02:24:42;;;;;;;28.50;26.30;;;15.20;90.10;;;;;;4977611;28;20451;-82
2022/07/30 02:27:15;;;;;;;32.20;29.73;;;15.10;90.20;;;;;;4978474;28;20459;-83
2022/07/30 02:29:44;;;;;;;35.83;33.13;;;15.10;90.50;;;;;;4988357;28;20759;-82
2022/07/30 02:32:14;;;;;;;39.47;36.40;;;15.10;90.80;;;;;;4997371;28;20851;-82
2022/07/30 02:34:42;;;;;;;41.73;39.10;;;15.00;90.80;;;;;;4986331;28;20462;-83
2022/07/30 02:37:13;;;;;;;49.27;45.80;;;14.90;91.10;;;;;;4982146;28;20454;-82
2022/07/30 02:39:42;;;;;;;51.13;48.43;;;14.90;91.70;;;;;;4976681;28;20480;-82
2022/07/30 02:42:10;;;;;;;61.03;57.43;;;14.80;91.80;;;;;;4978052;28;20470;-82
2022/07/30 02:44:38;;;;;;;55.87;52.87;;;14.80;92.00;;;;;;4978602;28;20986;-82
2022/07/30 02:47:07;;;;;;;68.20;64.23;;;14.80;92.20;;;;;;4985385;28;20457;-82
2022/07/30 02:49:36;;;;;;;59.23;56.13;;;14.90;92.20;;;;;;4999400;28;20462;-83
2022/07/30 02:52:04;;;;;;;68.60;64.63;;;14.90;92.10;;;;;;4988090;28;20982;-83
2022/07/30 02:54:32;;;;;;;77.27;72.57;;;14.80;92.20;;;;;;4983082;28;20824;-83
2022/07/30 02:57:00;;;;;;;72.27;67.50;;;14.90;92.10;;;;;;5000034;28;20529;-83
2022/07/30 02:59:30;;;;;;;75.03;71.17;;;14.80;92.30;;;;;;5004259;28;20461;-83
2022/07/30 03:01:57;;;;;;;71.67;68.17;;;14.80;92.70;;;;;;4989068;28;20979;-83
2022/07/30 03:04:26;;;;;;;92.47;87.67;;;14.70;92.90;;;;;;4981550;28;20466;-82
2022/07/30 03:06:55;;;;;;;102.00;96.90;;;14.60;92.90;;;;;;4995437;28;20458;-83
2022/07/30 03:09:22;;;;;;;105.33;100.23;;;14.70;93.50;;;;;;4995192;28;20516;-82
2022/07/30 03:11:52;;;;;;;94.53;89.83;;;14.50;93.80;;;;;;4982586;28;20829;-82
2022/07/30 03:14:19;;;;;;;118.13;112.67;;;14.40;93.80;;;;;;4974958;28;20817;-83
2022/07/30 03:16:51;;;;;;;161.73;155.03;;;14.30;95.10;;;;;;4986806;28;20666;-82
2022/07/30 03:19:22;;;;;;;183.00;176.03;;;14.20;95.50;;;;;;4994562;28;20466;-82
2022/07/30 03:21:50;;;;;;;290.93;279.87;;;14.00;96.20;;;;;;4984264;28;20905;-82
2022/07/30 03:24:20;;;;;;;339.10;325.37;;;13.90;98.50;;;;;;4976911;28;20450;-82
2022/07/30 03:26:47;;;;;;;349.97;336.17;;;13.90;99.20;;;;;;4987574;28;20550;-82
2022/07/30 03:29:16;;;;;;;350.43;336.00;;;14.10;99.90;;;;;;4996473;28;20469;-82
2022/07/30 03:31:43;;;;;;;357.77;341.87;;;14.10;99.90;;;;;;4986310;28;20451;-82
2022/07/30 03:34:11;;;;;;;358.57;342.57;;;14.20;99.90;;;;;;4977458;28;20494;-83
2022/07/30 03:36:40;;;;;;;352.13;336.53;;;14.20;99.90;;;;;;4984522;28;20461;-82
2022/07/30 03:39:07;;;;;;;339.20;324.40;;;14.30;99.90;;;;;;4996471;28;20506;-83
2022/07/30 03:41:37;;;;;;;360.53;344.33;;;14.40;99.90;;;;;;4982902;28;20474;-83
2022/07/30 03:44:04;;;;;;;322.73;308.70;;;14.40;99.90;;;;;;4975981;28;20483;-82
2022/07/30 03:46:32;;;;;;;359.67;344.37;;;14.30;99.90;;;;;;4986894;28;20458;-82
2022/07/30 03:49:00;;;;;;;361.70;345.93;;;14.20;99.90;;;;;;4996005;28;20458;-83
2022/07/30 03:51:27;;;;;;;353.47;337.37;;;14.10;99.90;;;;;;4984176;28;20443;-82
2022/07/30 03:53:54;;;;;;;399.00;381.90;;;14.00;99.90;;;;;;4975187;28;20511;-82
2022/07/30 03:56:22;;;;;;;428.23;409.43;;;14.00;99.90;;;;;;4983706;28;21042;-82
2022/07/30 03:58:50;;;;;;;467.07;446.00;;;14.00;99.90;;;;;;4984606;28;20459;-83
2022/07/30 04:01:17;;;;;;;603.57;575.10;;;14.00;99.90;;;;;;4983849;28;20986;-82
2022/07/30 04:03:44;;;;;;;582.33;554.07;;;14.00;99.90;;;;;;4991594;28;20482;-83
2022/07/30 04:06:10;;;;;;;622.47;591.53;;;14.10;99.90;;;;;;4983007;28;20465;-82
2022/07/30 04:08:37;;;;;;;588.97;559.90;;;14.00;99.90;;;;;;4995922;28;20470;-82
2022/07/30 04:11:04;;;;;;;624.27;593.67;;;14.10;99.90;;;;;;4990774;28;20454;-82
2022/07/30 04:13:30;;;;;;;587.13;557.63;;;14.00;99.90;;;;;;4977816;28;20859;-82
2022/07/30 04:16:04;;;;;;;651.43;619.30;;;14.20;99.90;;;;;;4978496;28;20455;-82
2022/07/30 04:18:40;;;;;;;724.53;687.23;;;14.10;99.90;;;;;;4995713;28;20458;-83
2022/07/30 04:21:10;;;;;;;739.10;699.97;;;14.20;99.90;;;;;;4991744;28;20565;-82
2022/07/30 04:23:39;;;;;;;768.67;727.17;;;14.20;99.90;;;;;;4976101;28;20491;-82
2022/07/30 04:26:07;;;;;;;753.47;711.87;;;14.20;99.90;;;;;;4989953;28;20458;-83
2022/07/30 04:28:35;;;;;;;756.57;714.47;;;14.30;99.90;;;;;;4995283;28;20469;-83
2022/07/30 04:31:03;;;;;;;758.53;717.03;;;14.30;99.90;;;;;;4985215;28;20458;-82
2022/07/30 04:33:30;;;;;;;759.27;717.40;;;14.40;99.90;;;;;;4976471;28;20485;-82
2022/07/30 04:36:05;;;;;;;763.80;721.10;;;14.50;99.90;;;;;;4987715;28;20456;-80
2022/07/30 04:38:31;;;;;;;747.07;706.87;;;14.50;99.90;;;;;;4994082;28;20827;-80
2022/07/30 04:40:58;;;;;;;785.60;741.03;;;14.50;99.90;;;;;;4978579;28;20474;-78
2022/07/30 04:43:25;;;;;;;783.37;739.87;;;14.50;99.90;;;;;;4977679;28;20846;-81
2022/07/30 04:45:52;;;;;;;739.17;699.63;;;14.60;99.90;;;;;;4976102;28;20450;-80
2022/07/30 04:48:20;;;;;;;773.50;730.87;;;14.60;99.90;;;;;;4973791;28;20804;-80
2022/07/30 04:50:51;;;;;;;752.07;710.57;;;14.60;99.90;;;;;;4973454;28;20455;-80
2022/07/30 04:56:40;;;;;;;809.60;763.33;;;14.70;99.90;;;;;;4916228;29;20493;-80
2022/07/30 04:59:09;;;;;;;798.10;752.67;;;14.90;99.90;;;;;;4914114;29;20460;-80
2022/07/30 05:11:31;;;;;;;741.97;698.63;;;15.40;99.90;;;;;;4932266;29;21011;-81
2022/07/30 05:27:34;;;;;;;575.10;542.93;;;15.90;99.90;;;;;;4911984;29;20456;-82
2022/07/30 05:30:03;;;;;;;513.13;486.00;;;16.10;99.90;;;;;;4995274;28;20465;-81
2022/07/30 05:35:39;;;;;;;467.13;443.00;;;16.10;99.90;;;;;;4976369;28;20541;-81
2022/07/30 05:38:11;;;;;;;444.23;421.90;;;16.30;99.90;;;;;;4991747;28;20474;-81
2022/07/30 05:40:38;;;;;;;407.50;387.10;;;16.30;99.90;;;;;;4992705;28;20491;-81
2022/07/30 05:43:07;;;;;;;384.27;366.57;;;16.40;99.90;;;;;;4975339;28;20479;-81
2022/07/30 05:45:37;;;;;;;372.60;353.70;;;16.50;99.90;;;;;;4977222;28;20456;-80
2022/07/30 05:48:05;;;;;;;369.90;351.90;;;16.40;99.90;;;;;;4962914;28;20454;-80
2022/07/30 05:50:32;;;;;;;364.50;346.97;;;16.50;99.90;;;;;;4955887;29;20458;-80
2022/07/30 05:52:58;;;;;;;356.07;338.87;;;16.50;99.90;;;;;;4957578;29;21034;-88
2022/07/30 05:55:25;;;;;;;318.97;304.27;;;16.60;99.90;;;;;;4965612;28;20532;-87
2022/07/30 05:57:52;;;;;;;312.77;297.87;;;16.50;99.90;;;;;;4971275;28;20553;-84
2022/07/30 06:00:20;;;;;;;328.40;313.70;;;16.60;99.90;;;;;;4976930;28;20471;-83
2022/07/30 06:02:47;;;;;;;301.83;288.87;;;16.60;99.90;;;;;;4980711;28;20487;-84
2022/07/30 06:05:13;;;;;;;299.70;286.80;;;16.80;99.90;;;;;;4981216;28;20837;-83
2022/07/30 06:07:40;;;;;;;270.70;258.27;;;16.60;99.90;;;;;;4980059;28;20465;-84
2022/07/30 06:10:08;;;;;;;236.33;225.70;;;16.90;99.50;;;;;;4981659;28;21095;-83
2022/07/30 06:12:35;;;;;;;265.87;254.57;;;16.80;98.80;;;;;;4981986;28;20471;-84
2022/07/30 06:15:01;;;;;;;230.30;219.90;;;16.90;99.50;;;;;;4981394;28;20454;-84
2022/07/30 06:17:29;;;;;;;211.47;201.57;;;16.80;98.10;;;;;;4980052;28;20458;-85
2022/07/30 06:19:58;;;;;;;193.63;184.17;;;17.10;97.10;;;;;;4981722;28;20469;-84
2022/07/30 06:22:25;;;;;;;142.60;134.90;;;17.20;96.10;;;;;;4993699;28;20485;-84
2022/07/30 06:24:52;;;;;;;104.67;98.87;;;17.40;94.60;;;;;;4985496;28;20481;-84
2022/07/30 06:27:19;;;;;;;72.83;68.17;;;17.50;93.70;;;;;;4999057;28;20955;-84
2022/07/30 06:29:45;;;;;;;57.87;53.73;;;17.60;92.30;;;;;;4988190;28;20453;-84
2022/07/30 06:32:12;;;;;;;46.43;41.63;;;17.70;91.10;;;;;;4986586;28;20467;-84
2022/07/30 06:34:40;;;;;;;40.57;37.07;;;17.70;90.20;;;;;;5001398;28;20458;-85
2022/07/30 06:37:07;;;;;;;34.80;31.17;;;17.80;89.80;;;;;;4996477;28;20458;-86
2022/07/30 06:39:34;;;;;;;29.60;26.60;;;17.80;89.20;;;;;;4994945;28;20956;-86
2022/07/30 06:42:00;;;;;;;27.77;22.63;;;18.10;88.50;;;;;;4995328;28;20485;-85
2022/07/30 06:44:27;;;;;;;31.07;20.43;;;18.20;85.40;;;;;;4995762;28;20821;-85
2022/07/30 06:46:54;;;;;;;27.87;17.33;;;18.40;84.60;;;;;;4982656;28;20463;-86
2022/07/30 06:49:21;;;;;;;32.10;19.00;;;18.20;81.00;;;;;;4994018;28;20451;-82
2022/07/30 06:51:50;;;;;;;25.80;18.63;;;18.20;81.80;;;;;;4989680;28;20514;-82
2022/07/30 06:54:47;;;;;;;25.10;17.97;;;18.20;82.80;;;;;;4974332;28;20456;-87
2022/07/30 06:57:21;;;;;;;20.40;15.10;;;18.60;81.10;;;;;;4974314;28;20455;-87
2022/07/30 06:59:55;;;;;;;21.30;15.80;;;18.70;77.40;;;;;;4975551;28;20504;-87
2022/07/30 07:02:22;;;;;;;20.47;14.80;;;18.70;77.10;;;;;;4976485;28;20487;-83
2022/07/30 07:04:49;;;;;;;24.17;13.70;;;18.90;74.10;;;;;;4975501;28;20800;-86
2022/07/30 07:07:24;;;;;;;19.93;12.80;;;18.80;71.70;;;;;;4974321;28;20461;-87
2022/07/30 07:09:51;;;;;;;19.80;13.10;;;18.90;72.00;;;;;;4978215;28;20462;-88
2022/07/30 07:12:18;;;;;;;22.60;13.80;;;18.80;73.40;;;;;;4980430;28;20486;-84
2022/07/30 07:14:59;;;;;;;25.02;16.30;;;18.80;74.00;;;;;;4977959;28;20947;-87
2022/07/30 07:17:26;;;;;;;26.23;16.53;;;18.90;73.10;;;;;;4979944;28;20201;-80
2022/07/30 07:19:52;;;;;;;22.83;15.57;;;18.90;71.60;;;;;;4977523;28;20466;-80
2022/07/30 07:22:20;;;;;;;23.53;14.90;;;19.20;70.60;;;;;;4978414;28;21040;-80
2022/07/30 07:24:47;;;;;;;21.00;14.17;;;19.10;69.30;;;;;;4977859;28;20464;-80
2022/07/30 07:27:14;;;;;;;27.10;14.00;;;19.50;69.60;;;;;;4976825;28;20459;-79
2022/07/30 07:29:41;;;;;;;22.57;15.63;;;19.70;67.60;;;;;;4976226;28;20461;-82
2022/07/30 07:32:08;;;;;;;23.13;12.97;;;19.80;67.50;;;;;;4979048;28;20476;-83
2022/07/30 07:34:34;;;;;;;21.43;13.50;;;19.70;65.40;;;;;;4978535;28;20469;-84
2022/07/30 07:37:01;;;;;;;26.50;15.77;;;20.10;65.40;;;;;;4979177;28;20559;-83
2022/07/30 07:39:32;;;;;;;23.83;14.03;;;20.00;63.60;;;;;;4980755;28;20455;-83
2022/07/30 07:54:36;;;;;;;22.13;13.97;;;20.00;61.80;;;;;;5019738;23;20500;-83
2022/07/30 07:57:08;;;;;;;21.43;13.80;;;20.00;64.10;;;;;;5011608;28;20831;-83
2022/07/30 07:59:37;;;;;;;20.73;13.80;;;20.00;63.70;;;;;;5008869;28;20547;-81
2022/07/30 08:02:04;;;;;;;25.47;15.00;;;20.50;63.70;;;;;;4995315;28;20539;-82
2022/07/30 08:04:30;;;;;;;25.37;15.00;;;20.50;60.80;;;;;;4997467;28;20488;-82
2022/07/30 08:06:57;;;;;;;17.97;12.97;;;20.70;60.80;;;;;;5014208;28;20455;-84
2022/07/30 08:09:24;;;;;;;24.20;13.93;;;20.80;57.90;;;;;;5013855;28;20478;-84
2022/07/30 08:11:50;;;;;;;27.93;13.60;;;20.90;59.70;;;;;;5021568;28;20540;-86
2022/07/30 08:14:18;;;;;;;28.90;15.23;;;21.20;59.40;;;;;;5024716;28;20453;-86
2022/07/30 08:16:45;;;;;;;30.35;16.48;;;21.50;56.60;;;;;;5021675;28;20458;-85
2022/07/30 08:19:12;;;;;;;34.70;14.90;;;21.70;54.80;;;;;;5017316;28;20221;-86
2022/07/30 08:21:45;;;;;;;23.00;15.30;;;21.60;54.70;;;;;;5019422;28;20476;-85
2022/07/30 08:25:01;;;;;;;22.30;14.90;;;21.80;52.40;;;;;;5012616;28;20470;-85
2022/07/30 08:27:30;;;;;;;20.50;12.93;;;22.20;50.80;;;;;;5017130;28;20464;-85
2022/07/30 08:29:58;;;;;;;27.40;15.33;;;22.50;50.40;;;;;;5018851;28;20985;-86
2022/07/30 08:32:29;;;;;;;23.87;14.73;;;22.20;50.00;;;;;;5015465;28;20498;-85
2022/07/30 08:34:56;;;;;;;18.30;13.47;;;22.70;47.70;;;;;;5015197;28;20466;-86
2022/07/30 08:37:22;;;;;;;22.70;14.60;;;22.60;46.80;;;;;;5015069;28;20483;-86
2022/07/30 08:39:51;;;;;;;20.30;14.10;;;22.70;47.70;;;;;;5016075;28;20463;-85
2022/07/30 08:42:18;;;;;;;22.33;12.77;;;22.80;46.90;;;;;;5016450;28;20476;-86
2022/07/30 08:44:46;;;;;;;27.23;12.13;;;22.90;44.00;;;;;;5015818;28;20838;-86
2022/07/30 08:47:19;;;;;;;21.47;12.30;;;23.40;42.70;;;;;;5018891;28;20457;-86
2022/07/30 08:49:47;;;;;;;20.10;14.90;;;23.30;42.00;;;;;;5019132;28;20536;-86
2022/07/30 08:52:14;;;;;;;19.60;14.33;;;23.50;41.00;;;;;;5017448;28;20571;-87
2022/07/30 08:54:41;;;;;;;19.80;12.90;;;23.80;40.30;;;;;;5019092;28;20835;-85
2022/07/30 08:57:10;;;;;;;20.17;11.80;;;24.20;37.20;;;;;;5028264;28;20532;-85
2022/07/30 08:59:38;;;;;;;15.60;11.40;;;24.00;36.90;;;;;;5023290;28;20449;-85
2022/07/30 09:02:13;;;;;;;19.67;12.13;;;24.00;35.70;;;;;;5016931;28;20945;-87
2022/07/30 09:04:50;;;;;;;17.17;10.80;;;24.40;33.20;;;;;;5016403;28;20471;-87
2022/07/30 09:07:22;;;;;;;18.30;11.10;;;24.50;33.00;;;;;;5018312;28;20969;-87
2022/07/30 09:09:49;;;;;;;18.17;10.50;;;24.30;30.10;;;;;;5017476;28;20984;-86
2022/07/30 09:25:58;;;;;;;16.03;11.00;;;24.40;30.60;;;;;;4996470;28;20454;-86
2022/07/30 09:29:10;;;;;;;17.77;11.10;;;25.20;28.00;;;;;;5010345;28;20769;-85
2022/07/30 09:32:25;;;;;;;15.73;9.63;;;25.50;28.00;;;;;;5009605;28;20264;-86
2022/07/30 09:38:40;;;;;;;;;;;;;;;;;;;;;
2022/07/30 09:41:50;;;;;;;11.63;7.23;;;26.10;20.70;;;;;;5007368;28;20424;-85
2022/07/30 09:47:59;;;;;;;;;;;;;;;;;;;;;
2022/07/30 09:50:27;;;;;;;20.63;10.27;;;25.60;18.60;;;;;;4945617;28;20456;-85
2022/07/30 09:56:38;;;;;;;16.17;9.47;;;26.60;16.70;;;;;;5010297;28;20465;-86
2022/07/30 10:02:29;;;;;;;10.40;7.90;;;26.80;13.00;;;;;;5017076;28;20477;-85
2022/07/30 10:05:13;;;;;;;12.50;7.40;;;26.30;15.70;;;;;;5021280;28;20540;-86
2022/07/30 10:08:36;;;;;;;;;;;;;;;;;;;;;
2022/07/30 10:11:33;;;;;;;16.33;7.70;;;27.30;13.80;;;;;;4940063;29;20204;-86
2022/07/30 10:14:33;;;;;;;11.80;6.50;;;28.30;8.10;;;;;;4946224;29;21048;-85
2022/07/30 10:17:01;;;;;;;11.67;7.63;;;27.60;9.60;;;;;;4954534;29;20542;-86
2022/07/30 10:19:28;;;;;;;13.17;6.60;;;27.80;6.70;;;;;;4983591;28;20450;-86
2022/07/30 10:21:56;;;;;;;14.83;6.60;;;28.20;5.50;;;;;;5007663;28;20455;-87
2022/07/30 10:24:48;;;;;;;10.07;6.30;;;28.50;6.20;;;;;;5014131;28;20465;-85
2022/07/30 10:27:23;;;;;;;9.23;5.63;;;28.70;4.80;;;;;;5014299;28;21051;-84
2022/07/30 10:29:53;;;;;;;12.63;5.43;;;28.70;3.00;;;;;;5014569;28;20459;-83
2022/07/30 10:32:40;;;;;;;9.27;6.03;;;28.50;2.20;;;;;;5019393;28;20473;-83
2022/07/30 10:35:13;;;;;;;10.30;5.27;;;29.10;1.10;;;;;;5019050;28;20480;-83
2022/07/30 10:37:45;;;;;;;10.10;3.93;;;28.90;1.00;;;;;;5020008;28;20415;-82
2022/07/30 10:40:25;;;;;;;11.87;5.30;;;28.00;1.90;;;;;;5022454;28;20460;-83
2022/07/30 10:43:22;;;;;;;9.73;4.83;;;27.10;1.40;;;;;;5019195;28;20500;-83
2022/07/30 10:46:06;;;;;;;7.57;4.30;;;27.10;1.30;;;;;;4979202;28;20428;-82
2022/07/30 10:48:39;;;;;;;8.30;4.20;;;27.00;1.00;;;;;;5001442;28;20454;-82
2022/07/30 10:54:05;;;;;;;15.50;8.93;;;27.10;1.00;;;;;;5016079;28;20535;-82
2022/07/30 10:56:42;;;;;;;8.30;4.53;;;28.80;1.00;;;;;;5019693;28;20961;-82
2022/07/30 10:59:15;;;;;;;7.80;3.70;;;28.50;1.00;;;;;;5021254;28;20453;-82
2022/07/30 11:02:24;;;;;;;10.03;3.70;;;28.40;1.00;;;;;;5024144;28;20449;-82
2022/07/30 11:04:53;;;;;;;7.97;3.67;;;28.80;1.00;;;;;;4964593;29;20507;-82
2022/07/30 11:07:32;;;;;;;7.70;2.87;;;29.80;1.00;;;;;;4961454;28;20534;-82
2022/07/30 11:10:02;;;;;;;6.80;3.47;;;29.70;1.00;;;;;;4987119;28;20450;-82
2022/07/30 11:12:55;;;;;;;8.57;3.60;;;30.00;1.00;;;;;;5013705;28;20525;-85
2022/07/30 11:15:23;;;;;;;7.50;2.77;;;29.70;1.00;;;;;;5013605;28;20457;-83
2022/07/30 11:18:12;;;;;;;6.90;2.70;;;30.10;1.00;;;;;;5016169;28;20452;-83
2022/07/30 11:20:39;;;;;;;7.97;3.17;;;31.00;1.00;;;;;;5016361;28;20877;-83
2022/07/30 11:23:13;;;;;;;8.87;3.30;;;31.40;1.00;;;;;;5016836;28;20440;-84
2022/07/30 11:25:42;;;;;;;9.60;4.53;;;30.90;1.00;;;;;;5014926;28;20445;-83
2022/07/30 11:28:36;;;;;;;11.37;5.20;;;30.20;1.00;;;;;;5013677;28;20440;-84
2022/07/30 11:31:27;;;;;;;8.20;3.70;;;30.70;1.00;;;;;;5015950;28;20449;-83
2022/07/30 11:34:13;;;;;;;11.37;3.40;;;30.50;1.00;;;;;;5013355;28;20451;-83
2022/07/30 11:37:06;;;;;;;7.37;3.93;;;30.80;1.00;;;;;;5015729;28;20428;-83
2022/07/30 11:40:11;;;;;;;12.20;4.87;;;30.80;1.00;;;;;;5016821;28;20431;-83
2022/07/30 11:42:42;;;;;;;7.47;3.80;;;30.80;1.00;;;;;;5016787;28;20439;-84
2022/07/30 11:45:31;;;;;;;8.00;3.00;;;31.40;1.00;;;;;;5016514;28;20490;-84
2022/07/30 11:48:02;;;;;;;11.57;3.50;;;29.70;1.00;;;;;;5014189;28;20892;-83
2022/07/30 11:50:31;;;;;;;9.27;3.50;;;29.70;1.00;;;;;;5013984;28;20479;-84
2022/07/30 11:53:00;;;;;;;11.70;3.30;;;29.50;1.00;;;;;;5014003;28;20462;-84
2022/07/30 11:55:31;;;;;;;8.60;3.40;;;30.20;1.00;;;;;;5013118;28;20436;-84
2022/07/30 11:58:00;;;;;;;6.00;3.00;;;30.20;1.00;;;;;;5014103;28;20526;-83
2022/07/30 12:00:35;;;;;;;6.20;2.80;;;30.20;1.00;;;;;;5013876;28;20449;-84
2022/07/30 12:03:16;;;;;;;8.40;3.57;;;29.80;1.00;;;;;;5013406;28;21070;-84
2022/07/30 12:05:45;;;;;;;12.63;4.93;;;30.20;1.00;;;;;;5014751;28;20449;-83
2022/07/30 12:08:15;;;;;;;6.90;3.70;;;29.90;1.00;;;;;;5014649;28;20845;-84
2022/07/30 12:10:43;;;;;;;5.87;3.00;;;29.70;1.00;;;;;;5014813;28;20457;-84
2022/07/30 12:13:11;;;;;;;5.60;3.13;;;30.10;1.00;;;;;;5014456;28;20526;-84
2022/07/30 12:15:40;;;;;;;7.57;3.13;;;31.50;1.00;;;;;;5014291;28;20491;-83
2022/07/30 12:18:11;;;;;;;6.60;2.40;;;31.30;1.00;;;;;;5014640;28;20470;-83
2022/07/30 12:20:44;;;;;;;4.90;2.00;;;31.40;1.00;;;;;;5016059;28;20459;-83
2022/07/30 12:23:12;;;;;;;9.03;2.40;;;30.70;1.00;;;;;;5016171;28;20469;-84
2022/07/30 12:25:40;;;;;;;4.47;1.90;;;30.10;1.00;;;;;;5015834;28;20457;-83
2022/07/30 12:28:15;;;;;;;7.00;2.60;;;29.20;1.00;;;;;;5015718;28;20556;-83
2022/07/30 12:30:42;;;;;;;8.43;3.10;;;29.60;1.00;;;;;;5015688;28;20456;-83
2022/07/30 12:33:10;;;;;;;6.07;2.63;;;30.10;1.00;;;;;;5017643;28;20828;-83
2022/07/30 12:35:45;;;;;;;9.07;3.10;;;30.80;1.00;;;;;;5016209;28;20432;-83
2022/07/30 12:38:12;;;;;;;8.33;2.70;;;31.40;1.00;;;;;;5020346;28;20454;-83
2022/07/30 12:40:57;;;;;;;7.40;2.33;;;31.80;1.00;;;;;;5026026;28;20449;-83
2022/07/30 12:43:48;;;;;;;5.83;2.23;;;30.50;1.00;;;;;;5025674;28;20472;-83
2022/07/30 12:46:17;;;;;;;5.93;2.00;;;31.00;1.00;;;;;;5026042;28;20457;-83
2022/07/30 12:48:53;;;;;;;6.83;2.03;;;30.20;1.00;;;;;;5027284;28;20453;-83
2022/07/30 12:51:21;;;;;;;7.43;2.53;;;30.40;1.00;;;;;;5024524;28;20828;-84
2022/07/30 12:53:48;;;;;;;5.80;2.90;;;30.60;1.00;;;;;;5025541;28;20458;-84
2022/07/30 12:56:18;;;;;;;5.63;2.37;;;30.60;1.00;;;;;;5023587;28;20431;-84
2022/07/30 12:58:46;;;;;;;6.73;2.40;;;31.80;1.00;;;;;;5023953;28;20461;-84
2022/07/30 13:01:14;;;;;;;5.73;2.30;;;32.90;1.00;;;;;;5024355;28;20455;-84
2022/07/30 13:03:41;;;;;;;5.80;1.93;;;34.10;1.00;;;;;;5024038;28;20467;-84
2022/07/30 13:06:15;;;;;;;8.50;2.73;;;32.80;1.00;;;;;;5023750;28;20457;-85
2022/07/30 13:08:54;;;;;;;8.07;2.10;;;33.50;1.00;;;;;;5018892;28;20463;-83
2022/07/30 13:11:23;;;;;;;6.10;2.13;;;33.30;1.00;;;;;;5016431;28;20431;-83
2022/07/30 13:13:51;;;;;;;5.63;1.60;;;31.50;1.00;;;;;;5019835;28;20458;-83
2022/07/30 13:16:19;;;;;;;5.60;1.40;;;30.00;1.00;;;;;;5022057;28;20428;-84
2022/07/30 13:18:46;;;;;;;7.00;1.83;;;29.70;1.00;;;;;;5021169;28;20499;-84
2022/07/30 13:21:14;;;;;;;5.37;2.00;;;30.60;1.00;;;;;;5022164;28;20449;-84
2022/07/30 13:23:42;;;;;;;5.43;2.10;;;31.40;1.00;;;;;;5020124;28;20859;-83
2022/07/30 13:26:09;;;;;;;5.93;1.97;;;31.90;1.00;;;;;;5019764;28;20456;-84
2022/07/30 13:28:36;;;;;;;4.40;1.83;;;33.50;1.00;;;;;;5023210;28;20423;-84
2022/07/30 13:31:04;;;;;;;5.00;1.93;;;32.10;1.00;;;;;;5021182;28;20430;-83
2022/07/30 13:33:30;;;;;;;7.90;2.03;;;31.80;1.00;;;;;;5022834;28;20837;-84
2022/07/30 13:35:58;;;;;;;6.47;1.93;;;30.90;1.00;;;;;;5024643;28;20457;-84
2022/07/30 13:38:26;;;;;;;6.00;2.60;;;31.10;1.00;;;;;;5022430;28;20533;-84
2022/07/30 13:40:54;;;;;;;5.20;2.00;;;31.30;1.00;;;;;;5022777;28;20511;-84
2022/07/30 13:43:21;;;;;;;5.23;1.33;;;30.70;1.00;;;;;;5025994;28;20443;-84
2022/07/30 13:45:48;;;;;;;6.10;1.80;;;29.70;1.00;;;;;;5018494;28;20538;-83
2022/07/30 13:48:15;;;;;;;4.20;1.40;;;29.40;1.00;;;;;;5018601;28;20206;-84
2022/07/30 13:50:42;;;;;;;6.00;1.90;;;28.70;1.00;;;;;;5016402;28;20962;-84
2022/07/30 13:53:18;;;;;;;7.27;1.70;;;28.50;1.00;;;;;;5015710;28;20486;-85
2022/07/30 13:55:52;;;;;;;7.90;1.40;;;28.90;1.00;;;;;;5015824;28;20547;-84
2022/07/30 13:58:19;;;;;;;6.30;1.77;;;29.70;1.00;;;;;;5016958;28;20525;-83
2022/07/30 14:00:46;;;;;;;5.13;1.47;;;29.90;1.00;;;;;;5013944;28;20450;-83
2022/07/30 14:03:15;;;;;;;5.07;2.00;;;29.90;1.00;;;;;;5006765;28;20465;-83
2022/07/30 14:05:47;;;;;;;5.30;1.53;;;30.60;1.00;;;;;;5005649;28;20702;-83
2022/07/30 14:08:13;;;;;;;4.70;1.30;;;31.20;1.00;;;;;;4999233;28;20512;-83
2022/07/30 14:10:40;;;;;;;7.60;2.30;;;31.20;1.00;;;;;;5017802;28;20456;-83